sensor_id;sensor_type;location;lat;lon;timestamp;P1;durP1;ratioP1;P2;durP2;ratioP2
17214;SDS011;8723;51.502;6.918;2023-08-07T00:01:45;6.90;;;3.70;;
17214;SDS011;8723;51.502;6.918;2023-08-07T00:04:12;6.80;;;3.37;;
17214;SDS011;8723;51.502;6.918;2023-08-07T00:06:39;7.53;;;4.18;;
17214;SDS011;8723;51.502;6.918;2023-08-07T00:09:06;9.70;;;4.18;;
17214;SDS011;8723;51.502;6.918;2023-08-07T00:11:34;10.10;;;4.80;;
17214;SDS011;8723;51.502;6.918;2023-08-07T00:14:00;9.20;;;4.95;;
17214;SDS011;8723;51.502;6.918;2023-08-07T00:16:27;11.95;;;5.55;;
17214;SDS011;8723;51.502;6.918;2023-08-07T00:18:54;10.40;;;5.47;;
17214;SDS011;8723;51.502;6.918;2023-08-07T00:21:21;11.13;;;5.15;;
17214;SDS011;8723;51.502;6.918;2023-08-07T00:23:48;12.23;;;5.75;;
17214;SDS011;8723;51.502;6.918;2023-08-07T00:26:15;13.15;;;5.47;;
17214;SDS011;8723;51.502;6.918;2023-08-07T00:28:43;9.60;;;5.53;;
17214;SDS011;8723;51.502;6.918;2023-08-07T00:31:10;10.90;;;5.65;;
17214;SDS011;8723;51.502;6.918;2023-08-07T00:33:37;11.20;;;5.38;;
17214;SDS011;8723;51.502;6.918;2023-08-07T00:36:04;11.65;;;5.50;;
17214;SDS011;8723;51.502;6.918;2023-08-07T00:38:31;14.38;;;4.82;;
17214;SDS011;8723;51.502;6.918;2023-08-07T00:40:58;9.43;;;4.35;;
17214;SDS011;8723;51.502;6.918;2023-08-07T00:43:25;10.40;;;4.18;;
17214;SDS011;8723;51.502;6.918;2023-08-07T00:45:53;8.05;;;3.80;;
17214;SDS011;8723;51.502;6.918;2023-08-07T00:48:20;10.35;;;4.20;;
17214;SDS011;8723;51.502;6.918;2023-08-07T00:50:47;10.50;;;4.13;;
17214;SDS011;8723;51.502;6.918;2023-08-07T00:53:15;9.02;;;4.18;;
17214;SDS011;8723;51.502;6.918;2023-08-07T00:55:42;11.33;;;4.23;;
17214;SDS011;8723;51.502;6.918;2023-08-07T00:58:09;10.87;;;4.30;;
17214;SDS011;8723;51.502;6.918;2023-08-07T01:00:37;11.93;;;3.80;;
17214;SDS011;8723;51.502;6.918;2023-08-07T01:03:08;10.98;;;4.40;;
17214;SDS011;8723;51.502;6.918;2023-08-07T01:05:36;8.10;;;4.10;;
17214;SDS011;8723;51.502;6.918;2023-08-07T01:08:03;10.77;;;4.03;;
17214;SDS011;8723;51.502;6.918;2023-08-07T01:10:33;11.85;;;4.82;;
17214;SDS011;8723;51.502;6.918;2023-08-07T01:13:04;11.57;;;4.07;;
17214;SDS011;8723;51.502;6.918;2023-08-07T01:15:38;9.07;;;4.03;;
17214;SDS011;8723;51.502;6.918;2023-08-07T01:18:07;9.32;;;4.15;;
17214;SDS011;8723;51.502;6.918;2023-08-07T01:20:34;11.57;;;4.07;;
17214;SDS011;8723;51.502;6.918;2023-08-07T01:23:03;11.35;;;3.97;;
17214;SDS011;8723;51.502;6.918;2023-08-07T01:25:30;9.60;;;3.75;;
17214;SDS011;8723;51.502;6.918;2023-08-07T01:28:00;8.95;;;3.83;;
17214;SDS011;8723;51.502;6.918;2023-08-07T01:30:33;8.93;;;3.50;;
17214;SDS011;8723;51.502;6.918;2023-08-07T01:33:06;9.32;;;4.22;;
17214;SDS011;8723;51.502;6.918;2023-08-07T01:35:40;12.03;;;3.77;;
17214;SDS011;8723;51.502;6.918;2023-08-07T01:38:11;14.13;;;4.63;;
17214;SDS011;8723;51.502;6.918;2023-08-07T01:40:39;8.48;;;4.15;;
17214;SDS011;8723;51.502;6.918;2023-08-07T01:43:10;9.82;;;4.30;;
17214;SDS011;8723;51.502;6.918;2023-08-07T01:45:39;8.98;;;3.70;;
17214;SDS011;8723;51.502;6.918;2023-08-07T01:48:09;9.38;;;3.95;;
17214;SDS011;8723;51.502;6.918;2023-08-07T01:50:38;6.30;;;3.67;;
17214;SDS011;8723;51.502;6.918;2023-08-07T01:53:08;8.90;;;3.83;;
17214;SDS011;8723;51.502;6.918;2023-08-07T01:55:40;8.07;;;4.00;;
17214;SDS011;8723;51.502;6.918;2023-08-07T01:58:09;7.70;;;3.90;;
17214;SDS011;8723;51.502;6.918;2023-08-07T02:00:39;7.35;;;4.03;;
17214;SDS011;8723;51.502;6.918;2023-08-07T02:03:08;9.52;;;4.90;;
17214;SDS011;8723;51.502;6.918;2023-08-07T02:05:38;7.50;;;5.00;;
17214;SDS011;8723;51.502;6.918;2023-08-07T02:08:07;7.22;;;3.53;;
17214;SDS011;8723;51.502;6.918;2023-08-07T02:10:36;7.47;;;3.77;;
17214;SDS011;8723;51.502;6.918;2023-08-07T02:13:03;6.63;;;3.15;;
17214;SDS011;8723;51.502;6.918;2023-08-07T02:15:33;6.90;;;2.85;;
17214;SDS011;8723;51.502;6.918;2023-08-07T02:18:02;8.00;;;3.03;;
17214;SDS011;8723;51.502;6.918;2023-08-07T02:20:32;6.10;;;2.75;;
17214;SDS011;8723;51.502;6.918;2023-08-07T02:23:02;7.50;;;2.83;;
17214;SDS011;8723;51.502;6.918;2023-08-07T02:25:31;5.30;;;2.75;;
17214;SDS011;8723;51.502;6.918;2023-08-07T02:28:02;5.88;;;2.55;;
17214;SDS011;8723;51.502;6.918;2023-08-07T02:30:31;3.45;;;2.40;;
17214;SDS011;8723;51.502;6.918;2023-08-07T02:32:59;4.53;;;2.30;;
17214;SDS011;8723;51.502;6.918;2023-08-07T02:35:29;4.75;;;2.53;;
17214;SDS011;8723;51.502;6.918;2023-08-07T02:37:55;4.57;;;3.75;;
17214;SDS011;8723;51.502;6.918;2023-08-07T02:40:22;6.10;;;3.67;;
17214;SDS011;8723;51.502;6.918;2023-08-07T02:42:49;7.07;;;3.92;;
17214;SDS011;8723;51.502;6.918;2023-08-07T02:45:18;7.47;;;4.13;;
17214;SDS011;8723;51.502;6.918;2023-08-07T02:47:44;8.90;;;4.28;;
17214;SDS011;8723;51.502;6.918;2023-08-07T02:50:11;7.45;;;3.63;;
17214;SDS011;8723;51.502;6.918;2023-08-07T02:52:38;6.40;;;3.63;;
17214;SDS011;8723;51.502;6.918;2023-08-07T02:55:05;8.95;;;3.53;;
17214;SDS011;8723;51.502;6.918;2023-08-07T02:57:32;9.20;;;4.13;;
17214;SDS011;8723;51.502;6.918;2023-08-07T02:59:59;9.60;;;4.25;;
17214;SDS011;8723;51.502;6.918;2023-08-07T03:02:28;7.90;;;4.32;;
17214;SDS011;8723;51.502;6.918;2023-08-07T03:04:56;9.43;;;4.60;;
17214;SDS011;8723;51.502;6.918;2023-08-07T03:07:26;9.90;;;4.60;;
17214;SDS011;8723;51.502;6.918;2023-08-07T03:09:55;11.85;;;4.88;;
17214;SDS011;8723;51.502;6.918;2023-08-07T03:12:25;10.18;;;4.80;;
17214;SDS011;8723;51.502;6.918;2023-08-07T03:14:54;10.80;;;4.30;;
17214;SDS011;8723;51.502;6.918;2023-08-07T03:17:21;10.00;;;4.47;;
17214;SDS011;8723;51.502;6.918;2023-08-07T03:19:49;8.90;;;4.15;;
17214;SDS011;8723;51.502;6.918;2023-08-07T03:22:15;10.38;;;4.50;;
17214;SDS011;8723;51.502;6.918;2023-08-07T03:24:45;11.80;;;4.53;;
17214;SDS011;8723;51.502;6.918;2023-08-07T03:27:12;10.73;;;4.60;;
17214;SDS011;8723;51.502;6.918;2023-08-07T03:29:39;13.73;;;4.50;;
17214;SDS011;8723;51.502;6.918;2023-08-07T03:32:06;11.13;;;4.35;;
17214;SDS011;8723;51.502;6.918;2023-08-07T03:34:34;12.73;;;4.77;;
17214;SDS011;8723;51.502;6.918;2023-08-07T03:37:02;16.88;;;5.72;;
17214;SDS011;8723;51.502;6.918;2023-08-07T03:39:29;15.52;;;5.55;;
17214;SDS011;8723;51.502;6.918;2023-08-07T03:41:56;15.50;;;5.32;;
17214;SDS011;8723;51.502;6.918;2023-08-07T03:44:23;11.52;;;4.82;;
17214;SDS011;8723;51.502;6.918;2023-08-07T03:46:49;14.00;;;5.20;;
17214;SDS011;8723;51.502;6.918;2023-08-07T03:49:16;14.32;;;5.75;;
17214;SDS011;8723;51.502;6.918;2023-08-07T03:51:43;17.73;;;6.13;;
17214;SDS011;8723;51.502;6.918;2023-08-07T03:54:11;15.98;;;6.80;;
17214;SDS011;8723;51.502;6.918;2023-08-07T03:56:38;21.02;;;8.10;;
17214;SDS011;8723;51.502;6.918;2023-08-07T03:59:05;20.85;;;8.18;;
17214;SDS011;8723;51.502;6.918;2023-08-07T04:01:32;21.33;;;7.55;;
17214;SDS011;8723;51.502;6.918;2023-08-07T04:03:58;15.83;;;6.67;;
17214;SDS011;8723;51.502;6.918;2023-08-07T04:06:25;20.75;;;8.15;;
17214;SDS011;8723;51.502;6.918;2023-08-07T04:08:53;17.50;;;7.60;;
17214;SDS011;8723;51.502;6.918;2023-08-07T04:11:21;22.80;;;7.65;;
17214;SDS011;8723;51.502;6.918;2023-08-07T04:13:48;22.97;;;8.10;;
17214;SDS011;8723;51.502;6.918;2023-08-07T04:16:15;17.15;;;6.57;;
17214;SDS011;8723;51.502;6.918;2023-08-07T04:18:42;17.98;;;6.97;;
17214;SDS011;8723;51.502;6.918;2023-08-07T04:21:09;19.08;;;6.90;;
17214;SDS011;8723;51.502;6.918;2023-08-07T04:23:35;18.10;;;6.30;;
17214;SDS011;8723;51.502;6.918;2023-08-07T04:26:02;13.87;;;6.37;;
17214;SDS011;8723;51.502;6.918;2023-08-07T04:28:30;17.50;;;5.72;;
17214;SDS011;8723;51.502;6.918;2023-08-07T04:30:57;17.23;;;6.00;;
17214;SDS011;8723;51.502;6.918;2023-08-07T04:33:24;17.60;;;5.70;;
17214;SDS011;8723;51.502;6.918;2023-08-07T04:35:51;12.25;;;5.72;;
17214;SDS011;8723;51.502;6.918;2023-08-07T04:38:17;14.10;;;5.38;;
17214;SDS011;8723;51.502;6.918;2023-08-07T04:40:46;12.93;;;5.28;;
17214;SDS011;8723;51.502;6.918;2023-08-07T04:43:14;11.40;;;4.90;;
17214;SDS011;8723;51.502;6.918;2023-08-07T04:45:42;17.23;;;6.10;;
17214;SDS011;8723;51.502;6.918;2023-08-07T04:48:10;18.10;;;6.82;;
17214;SDS011;8723;51.502;6.918;2023-08-07T04:50:37;17.70;;;7.30;;
17214;SDS011;8723;51.502;6.918;2023-08-07T04:53:04;19.17;;;7.57;;
17214;SDS011;8723;51.502;6.918;2023-08-07T04:55:31;20.45;;;7.72;;
17214;SDS011;8723;51.502;6.918;2023-08-07T04:57:58;17.50;;;7.47;;
17214;SDS011;8723;51.502;6.918;2023-08-07T05:00:25;15.52;;;7.72;;
17214;SDS011;8723;51.502;6.918;2023-08-07T05:02:54;23.10;;;10.30;;
17214;SDS011;8723;51.502;6.918;2023-08-07T05:05:21;16.23;;;8.15;;
17214;SDS011;8723;51.502;6.918;2023-08-07T05:07:48;15.75;;;8.32;;
17214;SDS011;8723;51.502;6.918;2023-08-07T05:10:14;18.17;;;7.75;;
17214;SDS011;8723;51.502;6.918;2023-08-07T05:12:41;14.27;;;7.13;;
17214;SDS011;8723;51.502;6.918;2023-08-07T05:15:08;16.63;;;7.60;;
17214;SDS011;8723;51.502;6.918;2023-08-07T05:17:35;15.18;;;7.30;;
17214;SDS011;8723;51.502;6.918;2023-08-07T05:20:04;16.88;;;6.80;;
17214;SDS011;8723;51.502;6.918;2023-08-07T05:22:32;16.17;;;7.32;;
17214;SDS011;8723;51.502;6.918;2023-08-07T05:24:58;18.10;;;7.63;;
17214;SDS011;8723;51.502;6.918;2023-08-07T05:27:25;15.25;;;7.18;;
17214;SDS011;8723;51.502;6.918;2023-08-07T05:29:52;13.63;;;7.07;;
17214;SDS011;8723;51.502;6.918;2023-08-07T05:32:19;15.98;;;7.78;;
17214;SDS011;8723;51.502;6.918;2023-08-07T05:34:46;19.60;;;8.15;;
17214;SDS011;8723;51.502;6.918;2023-08-07T05:37:14;16.33;;;7.57;;
17214;SDS011;8723;51.502;6.918;2023-08-07T05:39:40;17.92;;;8.73;;
17214;SDS011;8723;51.502;6.918;2023-08-07T05:42:07;15.75;;;8.95;;
17214;SDS011;8723;51.502;6.918;2023-08-07T05:44:35;18.90;;;9.90;;
17214;SDS011;8723;51.502;6.918;2023-08-07T05:47:02;22.15;;;11.35;;
17214;SDS011;8723;51.502;6.918;2023-08-07T05:49:29;20.83;;;11.10;;
17214;SDS011;8723;51.502;6.918;2023-08-07T05:51:56;18.15;;;10.48;;
17214;SDS011;8723;51.502;6.918;2023-08-07T05:54:25;19.20;;;11.80;;
17214;SDS011;8723;51.502;6.918;2023-08-07T05:56:51;22.80;;;11.15;;
17214;SDS011;8723;51.502;6.918;2023-08-07T05:59:18;16.15;;;11.13;;
17214;SDS011;8723;51.502;6.918;2023-08-07T06:01:45;18.38;;;9.90;;
17214;SDS011;8723;51.502;6.918;2023-08-07T06:04:12;16.30;;;9.02;;
17214;SDS011;8723;51.502;6.918;2023-08-07T06:06:39;15.93;;;9.45;;
17214;SDS011;8723;51.502;6.918;2023-08-07T06:09:07;16.08;;;8.90;;
17214;SDS011;8723;51.502;6.918;2023-08-07T06:11:36;14.45;;;8.70;;
17214;SDS011;8723;51.502;6.918;2023-08-07T06:14:02;15.60;;;8.77;;
17214;SDS011;8723;51.502;6.918;2023-08-07T06:16:29;13.07;;;7.15;;
17214;SDS011;8723;51.502;6.918;2023-08-07T06:18:56;14.07;;;7.03;;
17214;SDS011;8723;51.502;6.918;2023-08-07T06:21:23;12.10;;;6.25;;
17214;SDS011;8723;51.502;6.918;2023-08-07T06:23:49;13.80;;;6.43;;
17214;SDS011;8723;51.502;6.918;2023-08-07T06:26:16;12.60;;;6.20;;
17214;SDS011;8723;51.502;6.918;2023-08-07T06:28:44;10.52;;;5.18;;
17214;SDS011;8723;51.502;6.918;2023-08-07T06:31:11;10.85;;;4.70;;
17214;SDS011;8723;51.502;6.918;2023-08-07T06:33:38;10.37;;;4.83;;
17214;SDS011;8723;51.502;6.918;2023-08-07T06:36:06;8.90;;;4.43;;
17214;SDS011;8723;51.502;6.918;2023-08-07T06:38:33;7.90;;;4.40;;
17214;SDS011;8723;51.502;6.918;2023-08-07T06:41:00;10.07;;;4.70;;
17214;SDS011;8723;51.502;6.918;2023-08-07T06:43:27;7.93;;;4.25;;
17214;SDS011;8723;51.502;6.918;2023-08-07T06:45:56;7.88;;;4.47;;
17214;SDS011;8723;51.502;6.918;2023-08-07T06:48:23;10.35;;;5.05;;
17214;SDS011;8723;51.502;6.918;2023-08-07T06:50:50;9.10;;;4.82;;
17214;SDS011;8723;51.502;6.918;2023-08-07T06:53:17;7.70;;;5.07;;
17214;SDS011;8723;51.502;6.918;2023-08-07T06:55:45;10.05;;;5.55;;
17214;SDS011;8723;51.502;6.918;2023-08-07T06:58:12;9.93;;;5.22;;
17214;SDS011;8723;51.502;6.918;2023-08-07T07:00:39;9.68;;;5.35;;
17214;SDS011;8723;51.502;6.918;2023-08-07T07:03:07;10.80;;;5.80;;
17214;SDS011;8723;51.502;6.918;2023-08-07T07:05:35;10.13;;;5.40;;
17214;SDS011;8723;51.502;6.918;2023-08-07T07:08:01;14.40;;;6.30;;
17214;SDS011;8723;51.502;6.918;2023-08-07T07:10:28;13.68;;;6.15;;
17214;SDS011;8723;51.502;6.918;2023-08-07T07:12:55;8.82;;;5.85;;
17214;SDS011;8723;51.502;6.918;2023-08-07T07:15:22;10.23;;;5.35;;
17214;SDS011;8723;51.502;6.918;2023-08-07T07:17:49;12.95;;;5.60;;
17214;SDS011;8723;51.502;6.918;2023-08-07T07:20:17;12.20;;;5.77;;
17214;SDS011;8723;51.502;6.918;2023-08-07T07:22:44;11.13;;;5.97;;
17214;SDS011;8723;51.502;6.918;2023-08-07T07:25:11;11.05;;;6.13;;
17214;SDS011;8723;51.502;6.918;2023-08-07T07:27:38;11.95;;;5.95;;
17214;SDS011;8723;51.502;6.918;2023-08-07T07:30:06;11.30;;;6.10;;
17214;SDS011;8723;51.502;6.918;2023-08-07T07:32:33;11.25;;;5.40;;
17214;SDS011;8723;51.502;6.918;2023-08-07T07:35:00;12.35;;;5.20;;
17214;SDS011;8723;51.502;6.918;2023-08-07T07:37:30;8.82;;;5.50;;
17214;SDS011;8723;51.502;6.918;2023-08-07T07:39:57;13.20;;;5.03;;
17214;SDS011;8723;51.502;6.918;2023-08-07T07:42:24;12.20;;;4.90;;
17214;SDS011;8723;51.502;6.918;2023-08-07T07:44:51;9.73;;;5.07;;
17214;SDS011;8723;51.502;6.918;2023-08-07T07:47:18;9.05;;;4.78;;
17214;SDS011;8723;51.502;6.918;2023-08-07T07:49:46;9.25;;;4.60;;
17214;SDS011;8723;51.502;6.918;2023-08-07T07:52:13;9.10;;;4.65;;
17214;SDS011;8723;51.502;6.918;2023-08-07T07:54:41;8.27;;;4.90;;
17214;SDS011;8723;51.502;6.918;2023-08-07T07:57:08;10.60;;;4.97;;
17214;SDS011;8723;51.502;6.918;2023-08-07T07:59:35;9.65;;;5.15;;
17214;SDS011;8723;51.502;6.918;2023-08-07T08:02:03;10.15;;;5.25;;
17214;SDS011;8723;51.502;6.918;2023-08-07T08:04:30;11.02;;;5.38;;
17214;SDS011;8723;51.502;6.918;2023-08-07T08:06:57;13.05;;;5.18;;
17214;SDS011;8723;51.502;6.918;2023-08-07T08:09:24;10.35;;;5.47;;
17214;SDS011;8723;51.502;6.918;2023-08-07T08:11:52;13.00;;;5.50;;
17214;SDS011;8723;51.502;6.918;2023-08-07T08:14:19;9.60;;;5.28;;
17214;SDS011;8723;51.502;6.918;2023-08-07T08:16:46;11.68;;;5.50;;
17214;SDS011;8723;51.502;6.918;2023-08-07T08:19:13;9.75;;;5.50;;
17214;SDS011;8723;51.502;6.918;2023-08-07T08:21:41;11.90;;;6.10;;
17214;SDS011;8723;51.502;6.918;2023-08-07T08:24:08;10.95;;;5.13;;
17214;SDS011;8723;51.502;6.918;2023-08-07T08:26:35;11.27;;;5.35;;
17214;SDS011;8723;51.502;6.918;2023-08-07T08:29:03;14.43;;;5.67;;
17214;SDS011;8723;51.502;6.918;2023-08-07T08:31:30;10.02;;;5.03;;
17214;SDS011;8723;51.502;6.918;2023-08-07T08:33:57;9.95;;;5.25;;
17214;SDS011;8723;51.502;6.918;2023-08-07T08:36:24;11.68;;;5.78;;
17214;SDS011;8723;51.502;6.918;2023-08-07T08:38:50;10.10;;;4.45;;
17214;SDS011;8723;51.502;6.918;2023-08-07T08:41:17;12.88;;;4.80;;
17214;SDS011;8723;51.502;6.918;2023-08-07T08:43:46;8.03;;;4.37;;
17214;SDS011;8723;51.502;6.918;2023-08-07T08:46:15;10.23;;;5.05;;
17214;SDS011;8723;51.502;6.918;2023-08-07T08:48:44;9.25;;;4.60;;
17214;SDS011;8723;51.502;6.918;2023-08-07T08:51:16;10.57;;;4.88;;
17214;SDS011;8723;51.502;6.918;2023-08-07T08:53:43;9.50;;;4.50;;
17214;SDS011;8723;51.502;6.918;2023-08-07T08:56:11;11.77;;;4.80;;
17214;SDS011;8723;51.502;6.918;2023-08-07T08:58:38;10.80;;;4.75;;
17214;SDS011;8723;51.502;6.918;2023-08-07T09:01:07;11.43;;;4.15;;
17214;SDS011;8723;51.502;6.918;2023-08-07T09:03:36;8.50;;;4.60;;
17214;SDS011;8723;51.502;6.918;2023-08-07T09:06:03;10.48;;;4.82;;
17214;SDS011;8723;51.502;6.918;2023-08-07T09:08:31;11.32;;;4.82;;
17214;SDS011;8723;51.502;6.918;2023-08-07T09:11:00;8.98;;;4.28;;
17214;SDS011;8723;51.502;6.918;2023-08-07T09:13:28;7.90;;;3.85;;
17214;SDS011;8723;51.502;6.918;2023-08-07T09:15:56;8.57;;;3.97;;
17214;SDS011;8723;51.502;6.918;2023-08-07T09:18:26;10.30;;;4.53;;
17214;SDS011;8723;51.502;6.918;2023-08-07T09:20:54;9.63;;;4.03;;
17214;SDS011;8723;51.502;6.918;2023-08-07T09:23:22;9.43;;;4.20;;
17214;SDS011;8723;51.502;6.918;2023-08-07T09:25:58;11.47;;;4.17;;
17214;SDS011;8723;51.502;6.918;2023-08-07T09:28:26;9.90;;;4.28;;
17214;SDS011;8723;51.502;6.918;2023-08-07T09:30:54;7.95;;;4.00;;
17214;SDS011;8723;51.502;6.918;2023-08-07T09:33:24;10.38;;;4.22;;
17214;SDS011;8723;51.502;6.918;2023-08-07T09:35:51;9.00;;;4.22;;
17214;SDS011;8723;51.502;6.918;2023-08-07T09:38:23;7.63;;;4.32;;
17214;SDS011;8723;51.502;6.918;2023-08-07T09:40:49;12.80;;;5.47;;
17214;SDS011;8723;51.502;6.918;2023-08-07T09:43:20;9.90;;;4.83;;
17214;SDS011;8723;51.502;6.918;2023-08-07T09:45:48;10.20;;;5.00;;
17214;SDS011;8723;51.502;6.918;2023-08-07T09:48:24;11.68;;;5.32;;
17214;SDS011;8723;51.502;6.918;2023-08-07T09:50:54;8.93;;;4.90;;
17214;SDS011;8723;51.502;6.918;2023-08-07T09:53:25;9.23;;;4.50;;
17214;SDS011;8723;51.502;6.918;2023-08-07T09:55:52;11.07;;;4.88;;
17214;SDS011;8723;51.502;6.918;2023-08-07T09:58:19;8.57;;;4.38;;
17214;SDS011;8723;51.502;6.918;2023-08-07T10:00:46;9.15;;;4.68;;
17214;SDS011;8723;51.502;6.918;2023-08-07T10:03:13;10.18;;;5.03;;
17214;SDS011;8723;51.502;6.918;2023-08-07T10:05:42;10.10;;;5.27;;
17214;SDS011;8723;51.502;6.918;2023-08-07T10:08:11;13.75;;;5.55;;
17214;SDS011;8723;51.502;6.918;2023-08-07T10:10:38;12.85;;;5.43;;
17214;SDS011;8723;51.502;6.918;2023-08-07T10:13:05;15.38;;;5.68;;
17214;SDS011;8723;51.502;6.918;2023-08-07T10:15:32;11.23;;;5.25;;
17214;SDS011;8723;51.502;6.918;2023-08-07T10:18:00;15.23;;;5.88;;
17214;SDS011;8723;51.502;6.918;2023-08-07T10:20:28;11.50;;;5.28;;
17214;SDS011;8723;51.502;6.918;2023-08-07T10:22:56;14.57;;;5.90;;
17214;SDS011;8723;51.502;6.918;2023-08-07T10:25:32;12.75;;;6.10;;
17214;SDS011;8723;51.502;6.918;2023-08-07T10:27:59;13.50;;;5.47;;
17214;SDS011;8723;51.502;6.918;2023-08-07T10:30:28;12.13;;;5.07;;
17214;SDS011;8723;51.502;6.918;2023-08-07T10:32:57;10.15;;;5.05;;
17214;SDS011;8723;51.502;6.918;2023-08-07T10:35:25;9.10;;;4.60;;
17214;SDS011;8723;51.502;6.918;2023-08-07T10:37:52;15.07;;;5.13;;
17214;SDS011;8723;51.502;6.918;2023-08-07T10:40:19;12.10;;;4.80;;
17214;SDS011;8723;51.502;6.918;2023-08-07T10:42:53;8.07;;;4.20;;
17214;SDS011;8723;51.502;6.918;2023-08-07T10:45:23;10.73;;;6.30;;
17214;SDS011;8723;51.502;6.918;2023-08-07T10:47:58;9.93;;;6.32;;
17214;SDS011;8723;51.502;6.918;2023-08-07T10:50:35;11.77;;;6.27;;
17214;SDS011;8723;51.502;6.918;2023-08-07T10:53:18;10.25;;;4.70;;
17214;SDS011;8723;51.502;6.918;2023-08-07T10:55:46;8.10;;;4.80;;
17214;SDS011;8723;51.502;6.918;2023-08-07T10:58:24;8.05;;;4.63;;
17214;SDS011;8723;51.502;6.918;2023-08-07T11:00:52;9.45;;;4.72;;
17214;SDS011;8723;51.502;6.918;2023-08-07T11:03:44;9.10;;;4.32;;
17214;SDS011;8723;51.502;6.918;2023-08-07T11:06:11;13.10;;;5.30;;
17214;SDS011;8723;51.502;6.918;2023-08-07T11:08:38;11.30;;;5.25;;
17214;SDS011;8723;51.502;6.918;2023-08-07T11:11:05;6.32;;;3.90;;
17214;SDS011;8723;51.502;6.918;2023-08-07T11:13:34;11.70;;;4.47;;
17214;SDS011;8723;51.502;6.918;2023-08-07T11:16:01;7.15;;;4.22;;
17214;SDS011;8723;51.502;6.918;2023-08-07T11:18:28;10.07;;;4.45;;
17214;SDS011;8723;51.502;6.918;2023-08-07T11:20:56;7.63;;;3.90;;
17214;SDS011;8723;51.502;6.918;2023-08-07T11:23:23;8.77;;;4.10;;
17214;SDS011;8723;51.502;6.918;2023-08-07T11:25:50;4.73;;;3.30;;
17214;SDS011;8723;51.502;6.918;2023-08-07T11:28:18;7.80;;;3.38;;
17214;SDS011;8723;51.502;6.918;2023-08-07T11:30:48;6.22;;;3.33;;
17214;SDS011;8723;51.502;6.918;2023-08-07T11:33:16;5.47;;;3.33;;
17214;SDS011;8723;51.502;6.918;2023-08-07T11:35:44;7.32;;;3.20;;
17214;SDS011;8723;51.502;6.918;2023-08-07T11:38:11;4.57;;;3.00;;
17214;SDS011;8723;51.502;6.918;2023-08-07T11:40:38;6.65;;;3.15;;
17214;SDS011;8723;51.502;6.918;2023-08-07T11:43:05;7.73;;;3.27;;
17214;SDS011;8723;51.502;6.918;2023-08-07T11:45:32;6.97;;;3.33;;
17214;SDS011;8723;51.502;6.918;2023-08-07T11:48:00;8.88;;;3.55;;
17214;SDS011;8723;51.502;6.918;2023-08-07T11:50:28;7.60;;;3.10;;
17214;SDS011;8723;51.502;6.918;2023-08-07T11:52:55;6.45;;;3.90;;
17214;SDS011;8723;51.502;6.918;2023-08-07T11:55:25;7.55;;;2.95;;
17214;SDS011;8723;51.502;6.918;2023-08-07T11:57:55;8.10;;;3.17;;
17214;SDS011;8723;51.502;6.918;2023-08-07T12:00:24;7.25;;;2.85;;
17214;SDS011;8723;51.502;6.918;2023-08-07T12:02:52;6.15;;;2.95;;
17214;SDS011;8723;51.502;6.918;2023-08-07T12:05:21;6.18;;;2.58;;
17214;SDS011;8723;51.502;6.918;2023-08-07T12:07:48;7.37;;;2.83;;
17214;SDS011;8723;51.502;6.918;2023-08-07T12:10:15;7.68;;;2.88;;
17214;SDS011;8723;51.502;6.918;2023-08-07T12:12:42;5.63;;;2.70;;
17214;SDS011;8723;51.502;6.918;2023-08-07T12:15:10;6.05;;;2.40;;
17214;SDS011;8723;51.502;6.918;2023-08-07T12:17:37;5.43;;;2.70;;
17214;SDS011;8723;51.502;6.918;2023-08-07T12:20:04;6.20;;;2.60;;
17214;SDS011;8723;51.502;6.918;2023-08-07T12:22:36;4.28;;;2.58;;
17214;SDS011;8723;51.502;6.918;2023-08-07T12:25:04;6.18;;;2.95;;
17214;SDS011;8723;51.502;6.918;2023-08-07T12:27:31;5.17;;;2.43;;
17214;SDS011;8723;51.502;6.918;2023-08-07T12:29:58;6.82;;;2.50;;
17214;SDS011;8723;51.502;6.918;2023-08-07T12:32:24;5.55;;;2.80;;
17214;SDS011;8723;51.502;6.918;2023-08-07T12:34:51;6.30;;;2.47;;
17214;SDS011;8723;51.502;6.918;2023-08-07T12:37:18;5.57;;;2.30;;
17214;SDS011;8723;51.502;6.918;2023-08-07T12:39:47;5.30;;;2.58;;
17214;SDS011;8723;51.502;6.918;2023-08-07T12:42:13;5.07;;;2.22;;
17214;SDS011;8723;51.502;6.918;2023-08-07T12:44:40;5.28;;;2.72;;
17214;SDS011;8723;51.502;6.918;2023-08-07T12:47:08;6.35;;;2.75;;
17214;SDS011;8723;51.502;6.918;2023-08-07T12:49:35;5.68;;;2.40;;
17214;SDS011;8723;51.502;6.918;2023-08-07T12:52:02;5.65;;;2.40;;
17214;SDS011;8723;51.502;6.918;2023-08-07T12:54:29;5.68;;;2.53;;
17214;SDS011;8723;51.502;6.918;2023-08-07T12:56:57;5.70;;;3.60;;
17214;SDS011;8723;51.502;6.918;2023-08-07T12:59:24;8.95;;;5.80;;
17214;SDS011;8723;51.502;6.918;2023-08-07T13:01:50;9.13;;;5.38;;
17214;SDS011;8723;51.502;6.918;2023-08-07T13:04:18;9.77;;;4.05;;
17214;SDS011;8723;51.502;6.918;2023-08-07T13:06:45;4.75;;;3.17;;
17214;SDS011;8723;51.502;6.918;2023-08-07T13:09:14;5.97;;;3.30;;
17214;SDS011;8723;51.502;6.918;2023-08-07T13:11:41;6.93;;;2.65;;
17214;SDS011;8723;51.502;6.918;2023-08-07T13:14:09;7.43;;;2.83;;
17214;SDS011;8723;51.502;6.918;2023-08-07T13:16:36;5.13;;;2.40;;
17214;SDS011;8723;51.502;6.918;2023-08-07T13:19:02;5.18;;;2.30;;
17214;SDS011;8723;51.502;6.918;2023-08-07T13:21:29;4.95;;;2.50;;
17214;SDS011;8723;51.502;6.918;2023-08-07T13:23:56;7.00;;;2.65;;
17214;SDS011;8723;51.502;6.918;2023-08-07T13:26:23;4.25;;;2.30;;
17214;SDS011;8723;51.502;6.918;2023-08-07T13:28:49;4.65;;;2.50;;
17214;SDS011;8723;51.502;6.918;2023-08-07T13:31:17;5.07;;;2.33;;
17214;SDS011;8723;51.502;6.918;2023-08-07T13:33:44;5.13;;;2.28;;
17214;SDS011;8723;51.502;6.918;2023-08-07T13:36:11;4.38;;;2.10;;
17214;SDS011;8723;51.502;6.918;2023-08-07T13:38:38;5.93;;;2.10;;
17214;SDS011;8723;51.502;6.918;2023-08-07T13:41:04;5.63;;;2.08;;
17214;SDS011;8723;51.502;6.918;2023-08-07T13:43:31;4.63;;;2.15;;
17214;SDS011;8723;51.502;6.918;2023-08-07T13:45:58;2.08;;;1.70;;
17214;SDS011;8723;51.502;6.918;2023-08-07T13:48:26;3.92;;;1.98;;
17214;SDS011;8723;51.502;6.918;2023-08-07T13:50:53;5.45;;;2.40;;
17214;SDS011;8723;51.502;6.918;2023-08-07T13:53:20;3.97;;;1.90;;
17214;SDS011;8723;51.502;6.918;2023-08-07T13:55:49;3.28;;;2.03;;
17214;SDS011;8723;51.502;6.918;2023-08-07T13:58:15;3.58;;;2.00;;
17214;SDS011;8723;51.502;6.918;2023-08-07T14:00:42;5.30;;;2.05;;
17214;SDS011;8723;51.502;6.918;2023-08-07T14:03:09;5.82;;;2.17;;
17214;SDS011;8723;51.502;6.918;2023-08-07T14:05:39;4.40;;;2.10;;
17214;SDS011;8723;51.502;6.918;2023-08-07T14:08:05;3.90;;;1.95;;
17214;SDS011;8723;51.502;6.918;2023-08-07T14:10:34;5.60;;;2.30;;
17214;SDS011;8723;51.502;6.918;2023-08-07T14:13:01;3.33;;;2.07;;
17214;SDS011;8723;51.502;6.918;2023-08-07T14:15:28;3.50;;;2.17;;
17214;SDS011;8723;51.502;6.918;2023-08-07T14:17:55;6.93;;;2.42;;
17214;SDS011;8723;51.502;6.918;2023-08-07T14:20:22;6.05;;;2.88;;
17214;SDS011;8723;51.502;6.918;2023-08-07T14:22:51;5.95;;;3.55;;
17214;SDS011;8723;51.502;6.918;2023-08-07T14:25:17;5.85;;;3.50;;
17214;SDS011;8723;51.502;6.918;2023-08-07T14:27:46;6.80;;;4.40;;
17214;SDS011;8723;51.502;6.918;2023-08-07T14:30:13;6.03;;;2.90;;
17214;SDS011;8723;51.502;6.918;2023-08-07T14:32:40;6.10;;;2.63;;
17214;SDS011;8723;51.502;6.918;2023-08-07T14:35:08;3.85;;;2.40;;
17214;SDS011;8723;51.502;6.918;2023-08-07T14:37:35;4.90;;;2.40;;
17214;SDS011;8723;51.502;6.918;2023-08-07T14:40:03;4.88;;;2.00;;
17214;SDS011;8723;51.502;6.918;2023-08-07T14:42:31;5.45;;;2.42;;
17214;SDS011;8723;51.502;6.918;2023-08-07T14:44:58;7.40;;;2.50;;
17214;SDS011;8723;51.502;6.918;2023-08-07T14:47:25;3.78;;;2.03;;
17214;SDS011;8723;51.502;6.918;2023-08-07T14:49:52;4.38;;;2.13;;
17214;SDS011;8723;51.502;6.918;2023-08-07T14:52:19;2.88;;;1.83;;
17214;SDS011;8723;51.502;6.918;2023-08-07T14:54:46;3.15;;;1.60;;
17214;SDS011;8723;51.502;6.918;2023-08-07T14:57:14;3.92;;;1.77;;
17214;SDS011;8723;51.502;6.918;2023-08-07T14:59:41;5.13;;;2.45;;